sensor_id;sensor_type;location;lat;lon;timestamp;P1;durP1;ratioP1;P2;durP2;ratioP2
21430;SDS011;10876;49.038;10.608;2023-03-01T00:35:24;21.23;;;8.95;;
21430;SDS011;10876;49.038;10.608;2023-03-01T00:37:51;23.90;;;10.23;;
21430;SDS011;10876;49.038;10.608;2023-03-01T00:40:22;22.17;;;9.88;;
21430;SDS011;10876;49.038;10.608;2023-03-01T00:42:50;17.50;;;8.63;;
21430;SDS011;10876;49.038;10.608;2023-03-01T00:45:17;21.10;;;9.68;;
21430;SDS011;10876;49.038;10.608;2023-03-01T00:47:45;22.10;;;9.32;;
21430;SDS011;10876;49.038;10.608;2023-03-01T00:50:12;22.13;;;9.45;;
21430;SDS011;10876;49.038;10.608;2023-03-01T00:52:41;21.83;;;9.65;;
21430;SDS011;10876;49.038;10.608;2023-03-01T00:55:08;17.50;;;9.32;;
21430;SDS011;10876;49.038;10.608;2023-03-01T00:57:35;22.80;;;10.18;;
21430;SDS011;10876;49.038;10.608;2023-03-01T01:00:03;20.00;;;9.00;;
21430;SDS011;10876;49.038;10.608;2023-03-01T01:02:31;20.48;;;9.90;;
21430;SDS011;10876;49.038;10.608;2023-03-01T01:04:59;18.98;;;10.00;;
21430;SDS011;10876;49.038;10.608;2023-03-01T01:07:26;16.92;;;8.95;;
21430;SDS011;10876;49.038;10.608;2023-03-01T01:09:55;19.95;;;9.25;;
21430;SDS011;10876;49.038;10.608;2023-03-01T01:12:22;24.63;;;9.55;;
21430;SDS011;10876;49.038;10.608;2023-03-01T01:14:49;24.52;;;10.15;;
21430;SDS011;10876;49.038;10.608;2023-03-01T01:17:16;22.48;;;9.23;;
21430;SDS011;10876;49.038;10.608;2023-03-01T01:19:43;21.23;;;8.68;;
21430;SDS011;10876;49.038;10.608;2023-03-01T01:22:10;23.70;;;8.98;;
21430;SDS011;10876;49.038;10.608;2023-03-01T01:24:37;19.27;;;8.98;;
21430;SDS011;10876;49.038;10.608;2023-03-01T01:27:06;19.20;;;9.43;;
21430;SDS011;10876;49.038;10.608;2023-03-01T01:29:33;18.27;;;8.48;;
21430;SDS011;10876;49.038;10.608;2023-03-01T01:32:00;20.55;;;9.65;;
21430;SDS011;10876;49.038;10.608;2023-03-01T01:34:27;20.05;;;9.07;;
21430;SDS011;10876;49.038;10.608;2023-03-01T01:36:54;19.38;;;9.25;;
21430;SDS011;10876;49.038;10.608;2023-03-01T01:39:21;21.35;;;9.65;;
21430;SDS011;10876;49.038;10.608;2023-03-01T01:41:48;21.00;;;8.82;;
21430;SDS011;10876;49.038;10.608;2023-03-01T01:44:18;19.45;;;8.90;;
21430;SDS011;10876;49.038;10.608;2023-03-01T01:46:49;18.27;;;8.95;;
21430;SDS011;10876;49.038;10.608;2023-03-01T01:49:20;20.13;;;9.15;;
21430;SDS011;10876;49.038;10.608;2023-03-01T01:51:52;18.95;;;8.35;;
21430;SDS011;10876;49.038;10.608;2023-03-01T01:54:27;19.95;;;8.82;;
21430;SDS011;10876;49.038;10.608;2023-03-01T01:56:58;18.30;;;8.63;;
21430;SDS011;10876;49.038;10.608;2023-03-01T01:59:31;27.33;;;9.55;;
21430;SDS011;10876;49.038;10.608;2023-03-01T02:02:03;18.63;;;8.52;;
21430;SDS011;10876;49.038;10.608;2023-03-01T02:04:30;19.02;;;8.73;;
21430;SDS011;10876;49.038;10.608;2023-03-01T02:06:59;19.25;;;9.07;;
21430;SDS011;10876;49.038;10.608;2023-03-01T02:09:30;18.35;;;8.98;;
21430;SDS011;10876;49.038;10.608;2023-03-01T02:11:59;18.17;;;8.52;;
21430;SDS011;10876;49.038;10.608;2023-03-01T02:14:27;22.23;;;9.63;;
21430;SDS011;10876;49.038;10.608;2023-03-01T02:16:55;25.48;;;10.35;;
21430;SDS011;10876;49.038;10.608;2023-03-01T02:19:26;18.33;;;8.77;;
21430;SDS011;10876;49.038;10.608;2023-03-01T02:22:02;18.27;;;8.57;;
21430;SDS011;10876;49.038;10.608;2023-03-01T02:24:40;19.95;;;9.32;;
21430;SDS011;10876;49.038;10.608;2023-03-01T02:27:18;20.65;;;9.48;;
21430;SDS011;10876;49.038;10.608;2023-03-01T02:29:51;20.48;;;8.98;;
21430;SDS011;10876;49.038;10.608;2023-03-01T02:32:18;19.05;;;8.55;;
21430;SDS011;10876;49.038;10.608;2023-03-01T02:34:50;19.40;;;8.63;;
21430;SDS011;10876;49.038;10.608;2023-03-01T02:37:18;22.92;;;9.05;;
21430;SDS011;10876;49.038;10.608;2023-03-01T02:39:51;21.85;;;9.00;;
21430;SDS011;10876;49.038;10.608;2023-03-01T02:42:23;20.40;;;9.57;;
21430;SDS011;10876;49.038;10.608;2023-03-01T02:44:58;18.02;;;8.68;;
21430;SDS011;10876;49.038;10.608;2023-03-01T02:47:25;18.50;;;8.60;;
21430;SDS011;10876;49.038;10.608;2023-03-01T02:49:52;22.05;;;9.73;;
21430;SDS011;10876;49.038;10.608;2023-03-01T02:52:34;15.85;;;8.10;;
21430;SDS011;10876;49.038;10.608;2023-03-01T02:55:11;19.85;;;9.02;;
21430;SDS011;10876;49.038;10.608;2023-03-01T02:57:40;22.98;;;9.43;;
21430;SDS011;10876;49.038;10.608;2023-03-01T03:00:12;25.95;;;9.60;;
21430;SDS011;10876;49.038;10.608;2023-03-01T03:02:44;16.25;;;8.75;;
21430;SDS011;10876;49.038;10.608;2023-03-01T03:05:13;19.15;;;9.40;;
21430;SDS011;10876;49.038;10.608;2023-03-01T03:07:43;21.95;;;9.82;;
21430;SDS011;10876;49.038;10.608;2023-03-01T03:10:13;18.58;;;9.38;;
21430;SDS011;10876;49.038;10.608;2023-03-01T03:12:41;22.67;;;9.93;;
21430;SDS011;10876;49.038;10.608;2023-03-01T03:15:10;18.85;;;9.43;;
21430;SDS011;10876;49.038;10.608;2023-03-01T03:17:38;26.10;;;10.10;;
21430;SDS011;10876;49.038;10.608;2023-03-01T03:20:07;21.83;;;9.52;;
21430;SDS011;10876;49.038;10.608;2023-03-01T03:22:37;23.15;;;10.15;;
21430;SDS011;10876;49.038;10.608;2023-03-01T03:25:05;22.35;;;9.18;;
21430;SDS011;10876;49.038;10.608;2023-03-01T03:27:35;19.58;;;9.30;;
21430;SDS011;10876;49.038;10.608;2023-03-01T03:30:03;22.25;;;9.40;;
21430;SDS011;10876;49.038;10.608;2023-03-01T03:32:35;20.27;;;9.30;;
21430;SDS011;10876;49.038;10.608;2023-03-01T03:35:03;21.08;;;9.52;;
21430;SDS011;10876;49.038;10.608;2023-03-01T03:37:35;21.95;;;9.10;;
21430;SDS011;10876;49.038;10.608;2023-03-01T03:40:19;26.33;;;9.27;;
21430;SDS011;10876;49.038;10.608;2023-03-01T03:42:46;19.13;;;8.95;;
21430;SDS011;10876;49.038;10.608;2023-03-01T03:45:16;21.13;;;9.23;;
21430;SDS011;10876;49.038;10.608;2023-03-01T03:47:47;21.77;;;9.25;;
21430;SDS011;10876;49.038;10.608;2023-03-01T03:50:15;22.13;;;10.35;;
21430;SDS011;10876;49.038;10.608;2023-03-01T03:52:43;18.95;;;9.23;;
21430;SDS011;10876;49.038;10.608;2023-03-01T03:55:11;23.17;;;10.15;;
21430;SDS011;10876;49.038;10.608;2023-03-01T03:57:38;22.25;;;9.70;;
21430;SDS011;10876;49.038;10.608;2023-03-01T04:00:09;21.77;;;9.65;;
21430;SDS011;10876;49.038;10.608;2023-03-01T04:02:38;20.52;;;9.30;;
21430;SDS011;10876;49.038;10.608;2023-03-01T04:05:08;20.05;;;8.85;;
21430;SDS011;10876;49.038;10.608;2023-03-01T04:07:37;18.48;;;9.45;;
21430;SDS011;10876;49.038;10.608;2023-03-01T04:10:06;19.00;;;8.55;;
21430;SDS011;10876;49.038;10.608;2023-03-01T04:12:35;22.15;;;8.45;;
21430;SDS011;10876;49.038;10.608;2023-03-01T04:15:05;21.13;;;9.73;;
21430;SDS011;10876;49.038;10.608;2023-03-01T04:17:38;20.35;;;9.43;;
21430;SDS011;10876;49.038;10.608;2023-03-01T04:20:09;22.33;;;9.45;;
21430;SDS011;10876;49.038;10.608;2023-03-01T04:22:38;21.77;;;9.20;;
21430;SDS011;10876;49.038;10.608;2023-03-01T04:25:06;18.75;;;8.85;;
21430;SDS011;10876;49.038;10.608;2023-03-01T04:27:39;20.02;;;8.88;;
21430;SDS011;10876;49.038;10.608;2023-03-01T04:30:07;21.38;;;9.32;;
21430;SDS011;10876;49.038;10.608;2023-03-01T04:32:35;21.70;;;9.35;;
21430;SDS011;10876;49.038;10.608;2023-03-01T04:35:02;22.30;;;10.30;;
21430;SDS011;10876;49.038;10.608;2023-03-01T04:37:31;23.38;;;9.55;;
21430;SDS011;10876;49.038;10.608;2023-03-01T04:40:01;20.52;;;9.52;;
21430;SDS011;10876;49.038;10.608;2023-03-01T04:42:37;19.38;;;9.52;;
21430;SDS011;10876;49.038;10.608;2023-03-01T04:45:04;20.10;;;8.50;;
21430;SDS011;10876;49.038;10.608;2023-03-01T04:47:38;24.30;;;10.05;;
21430;SDS011;10876;49.038;10.608;2023-03-01T04:50:06;21.73;;;9.80;;
21430;SDS011;10876;49.038;10.608;2023-03-01T04:52:36;20.60;;;9.50;;
21430;SDS011;10876;49.038;10.608;2023-03-01T04:55:03;21.33;;;8.70;;
21430;SDS011;10876;49.038;10.608;2023-03-01T04:57:34;21.23;;;9.15;;
21430;SDS011;10876;49.038;10.608;2023-03-01T05:00:02;19.30;;;9.10;;
21430;SDS011;10876;49.038;10.608;2023-03-01T05:02:45;18.25;;;8.00;;
21430;SDS011;10876;49.038;10.608;2023-03-01T05:05:19;20.02;;;9.32;;
21430;SDS011;10876;49.038;10.608;2023-03-01T05:07:52;19.23;;;9.00;;
21430;SDS011;10876;49.038;10.608;2023-03-01T05:10:20;20.90;;;8.70;;
21430;SDS011;10876;49.038;10.608;2023-03-01T05:12:49;24.15;;;9.93;;
21430;SDS011;10876;49.038;10.608;2023-03-01T05:15:17;18.95;;;8.55;;
21430;SDS011;10876;49.038;10.608;2023-03-01T05:17:44;21.52;;;9.70;;
21430;SDS011;10876;49.038;10.608;2023-03-01T05:20:11;18.33;;;8.98;;
21430;SDS011;10876;49.038;10.608;2023-03-01T05:22:38;19.73;;;8.68;;
21430;SDS011;10876;49.038;10.608;2023-03-01T05:25:07;24.48;;;10.70;;
21430;SDS011;10876;49.038;10.608;2023-03-01T05:27:34;21.65;;;9.80;;
21430;SDS011;10876;49.038;10.608;2023-03-01T05:30:01;24.30;;;9.55;;
21430;SDS011;10876;49.038;10.608;2023-03-01T05:32:39;23.45;;;9.73;;
21430;SDS011;10876;49.038;10.608;2023-03-01T05:35:08;27.40;;;10.40;;
21430;SDS011;10876;49.038;10.608;2023-03-01T05:37:38;22.83;;;10.32;;
21430;SDS011;10876;49.038;10.608;2023-03-01T05:40:09;17.92;;;8.65;;
21430;SDS011;10876;49.038;10.608;2023-03-01T05:42:41;19.58;;;8.55;;
21430;SDS011;10876;49.038;10.608;2023-03-01T05:45:11;19.50;;;9.30;;
21430;SDS011;10876;49.038;10.608;2023-03-01T05:47:41;22.55;;;9.43;;
21430;SDS011;10876;49.038;10.608;2023-03-01T05:50:13;20.98;;;9.23;;
21430;SDS011;10876;49.038;10.608;2023-03-01T05:52:44;23.17;;;9.57;;
21430;SDS011;10876;49.038;10.608;2023-03-01T05:55:13;20.90;;;9.15;;
21430;SDS011;10876;49.038;10.608;2023-03-01T05:57:41;20.65;;;8.85;;
21430;SDS011;10876;49.038;10.608;2023-03-01T06:00:08;21.30;;;9.50;;
21430;SDS011;10876;49.038;10.608;2023-03-01T06:02:36;17.90;;;7.95;;
21430;SDS011;10876;49.038;10.608;2023-03-01T06:05:03;20.95;;;8.05;;
21430;SDS011;10876;49.038;10.608;2023-03-01T06:07:31;21.73;;;8.88;;
21430;SDS011;10876;49.038;10.608;2023-03-01T06:09:58;22.52;;;9.90;;
21430;SDS011;10876;49.038;10.608;2023-03-01T06:12:27;20.08;;;8.73;;
21430;SDS011;10876;49.038;10.608;2023-03-01T06:14:56;22.05;;;9.05;;
21430;SDS011;10876;49.038;10.608;2023-03-01T06:17:23;17.77;;;8.27;;
21430;SDS011;10876;49.038;10.608;2023-03-01T06:19:50;18.45;;;9.18;;
21430;SDS011;10876;49.038;10.608;2023-03-01T06:22:17;20.65;;;9.18;;
21430;SDS011;10876;49.038;10.608;2023-03-01T06:24:44;17.55;;;9.02;;
21430;SDS011;10876;49.038;10.608;2023-03-01T06:27:11;21.17;;;9.35;;
21430;SDS011;10876;49.038;10.608;2023-03-01T06:29:39;20.13;;;9.30;;
21430;SDS011;10876;49.038;10.608;2023-03-01T06:32:06;22.05;;;8.88;;
21430;SDS011;10876;49.038;10.608;2023-03-01T06:34:34;23.42;;;9.45;;
21430;SDS011;10876;49.038;10.608;2023-03-01T06:37:01;20.23;;;8.75;;
21430;SDS011;10876;49.038;10.608;2023-03-01T06:39:30;18.80;;;9.40;;
21430;SDS011;10876;49.038;10.608;2023-03-01T06:41:57;21.58;;;9.23;;
21430;SDS011;10876;49.038;10.608;2023-03-01T06:44:24;22.48;;;9.02;;
21430;SDS011;10876;49.038;10.608;2023-03-01T06:46:53;20.95;;;8.90;;
21430;SDS011;10876;49.038;10.608;2023-03-01T06:49:20;16.67;;;8.75;;
21430;SDS011;10876;49.038;10.608;2023-03-01T06:51:47;19.20;;;8.95;;
21430;SDS011;10876;49.038;10.608;2023-03-01T06:54:14;20.23;;;9.60;;
21430;SDS011;10876;49.038;10.608;2023-03-01T06:56:42;20.27;;;8.60;;
21430;SDS011;10876;49.038;10.608;2023-03-01T06:59:09;21.35;;;9.02;;
21430;SDS011;10876;49.038;10.608;2023-03-01T07:01:36;24.23;;;9.18;;
21430;SDS011;10876;49.038;10.608;2023-03-01T07:04:07;22.15;;;9.63;;
21430;SDS011;10876;49.038;10.608;2023-03-01T07:06:34;24.02;;;10.30;;
21430;SDS011;10876;49.038;10.608;2023-03-01T07:09:02;19.70;;;8.63;;
21430;SDS011;10876;49.038;10.608;2023-03-01T07:11:29;21.13;;;8.95;;
21430;SDS011;10876;49.038;10.608;2023-03-01T07:13:56;24.85;;;10.27;;
21430;SDS011;10876;49.038;10.608;2023-03-01T07:16:23;24.77;;;10.07;;
21430;SDS011;10876;49.038;10.608;2023-03-01T07:18:50;24.85;;;10.60;;
21430;SDS011;10876;49.038;10.608;2023-03-01T07:21:19;21.98;;;9.45;;
21430;SDS011;10876;49.038;10.608;2023-03-01T07:23:47;21.23;;;9.82;;
21430;SDS011;10876;49.038;10.608;2023-03-01T07:26:14;23.98;;;10.05;;
21430;SDS011;10876;49.038;10.608;2023-03-01T07:28:41;25.90;;;10.48;;
21430;SDS011;10876;49.038;10.608;2023-03-01T07:31:08;22.58;;;10.50;;
21430;SDS011;10876;49.038;10.608;2023-03-01T07:33:35;26.80;;;9.88;;
21430;SDS011;10876;49.038;10.608;2023-03-01T07:36:02;22.05;;;10.38;;
21430;SDS011;10876;49.038;10.608;2023-03-01T07:38:33;21.92;;;9.98;;
21430;SDS011;10876;49.038;10.608;2023-03-01T07:41:01;25.30;;;10.35;;
21430;SDS011;10876;49.038;10.608;2023-03-01T07:43:31;25.65;;;10.40;;
21430;SDS011;10876;49.038;10.608;2023-03-01T07:45:58;23.67;;;10.02;;
21430;SDS011;10876;49.038;10.608;2023-03-01T07:48:26;22.98;;;9.80;;
21430;SDS011;10876;49.038;10.608;2023-03-01T07:50:54;23.27;;;10.50;;
21430;SDS011;10876;49.038;10.608;2023-03-01T07:53:23;21.90;;;9.73;;
21430;SDS011;10876;49.038;10.608;2023-03-01T07:56:01;20.77;;;9.98;;
21430;SDS011;10876;49.038;10.608;2023-03-01T07:58:28;22.27;;;9.32;;
21430;SDS011;10876;49.038;10.608;2023-03-01T08:00:55;21.65;;;10.43;;
21430;SDS011;10876;49.038;10.608;2023-03-01T08:03:22;23.85;;;11.02;;
21430;SDS011;10876;49.038;10.608;2023-03-01T08:05:49;23.17;;;10.15;;
21430;SDS011;10876;49.038;10.608;2023-03-01T08:08:16;24.95;;;11.30;;
21430;SDS011;10876;49.038;10.608;2023-03-01T08:10:43;24.05;;;11.18;;
21430;SDS011;10876;49.038;10.608;2023-03-01T08:13:11;23.95;;;11.45;;
21430;SDS011;10876;49.038;10.608;2023-03-01T08:15:38;27.92;;;11.80;;
21430;SDS011;10876;49.038;10.608;2023-03-01T08:18:05;23.23;;;11.05;;
21430;SDS011;10876;49.038;10.608;2023-03-01T08:20:32;26.30;;;10.85;;
21430;SDS011;10876;49.038;10.608;2023-03-01T08:22:59;26.85;;;10.93;;
21430;SDS011;10876;49.038;10.608;2023-03-01T08:25:26;24.30;;;9.70;;
21430;SDS011;10876;49.038;10.608;2023-03-01T08:27:53;23.13;;;10.15;;
21430;SDS011;10876;49.038;10.608;2023-03-01T08:30:22;23.70;;;10.95;;
21430;SDS011;10876;49.038;10.608;2023-03-01T08:32:49;21.33;;;10.05;;
21430;SDS011;10876;49.038;10.608;2023-03-01T08:35:16;26.73;;;10.93;;
21430;SDS011;10876;49.038;10.608;2023-03-01T08:37:43;21.80;;;11.43;;
21430;SDS011;10876;49.038;10.608;2023-03-01T08:40:11;25.27;;;10.63;;
21430;SDS011;10876;49.038;10.608;2023-03-01T08:42:39;22.98;;;10.82;;
21430;SDS011;10876;49.038;10.608;2023-03-01T08:45:08;25.52;;;10.70;;
21430;SDS011;10876;49.038;10.608;2023-03-01T08:47:38;24.02;;;11.77;;
21430;SDS011;10876;49.038;10.608;2023-03-01T08:50:06;24.98;;;11.60;;
21430;SDS011;10876;49.038;10.608;2023-03-01T08:52:38;24.15;;;11.95;;
21430;SDS011;10876;49.038;10.608;2023-03-01T08:55:06;25.90;;;12.23;;
21430;SDS011;10876;49.038;10.608;2023-03-01T08:57:46;23.25;;;11.18;;
21430;SDS011;10876;49.038;10.608;2023-03-01T09:00:14;29.38;;;12.05;;
21430;SDS011;10876;49.038;10.608;2023-03-01T09:02:44;24.00;;;10.80;;
21430;SDS011;10876;49.038;10.608;2023-03-01T09:05:10;21.40;;;10.82;;
21430;SDS011;10876;49.038;10.608;2023-03-01T09:07:38;22.55;;;10.45;;
21430;SDS011;10876;49.038;10.608;2023-03-01T09:10:06;21.27;;;10.82;;
21430;SDS011;10876;49.038;10.608;2023-03-01T09:12:35;27.48;;;11.13;;
21430;SDS011;10876;49.038;10.608;2023-03-01T09:15:02;23.98;;;10.55;;
21430;SDS011;10876;49.038;10.608;2023-03-01T09:17:30;25.73;;;11.75;;
21430;SDS011;10876;49.038;10.608;2023-03-01T09:19:59;13.77;;;6.97;;
21430;SDS011;10876;49.038;10.608;2023-03-01T09:22:30;23.35;;;10.80;;
21430;SDS011;10876;49.038;10.608;2023-03-01T09:25:00;23.88;;;10.85;;
21430;SDS011;10876;49.038;10.608;2023-03-01T09:27:28;28.05;;;11.77;;
21430;SDS011;10876;49.038;10.608;2023-03-01T09:29:56;26.58;;;12.05;;
21430;SDS011;10876;49.038;10.608;2023-03-01T09:32:24;26.00;;;11.07;;
21430;SDS011;10876;49.038;10.608;2023-03-01T09:34:51;26.58;;;12.23;;
21430;SDS011;10876;49.038;10.608;2023-03-01T09:37:31;25.08;;;10.98;;
21430;SDS011;10876;49.038;10.608;2023-03-01T09:39:59;23.88;;;11.43;;
21430;SDS011;10876;49.038;10.608;2023-03-01T09:42:27;23.10;;;11.60;;
21430;SDS011;10876;49.038;10.608;2023-03-01T09:44:57;26.95;;;11.90;;
21430;SDS011;10876;49.038;10.608;2023-03-01T09:47:29;24.48;;;11.57;;
21430;SDS011;10876;49.038;10.608;2023-03-01T09:49:59;23.35;;;11.40;;
21430;SDS011;10876;49.038;10.608;2023-03-01T09:52:35;24.70;;;11.88;;
21430;SDS011;10876;49.038;10.608;2023-03-01T09:55:09;23.70;;;11.18;;
21430;SDS011;10876;49.038;10.608;2023-03-01T09:57:45;24.63;;;11.35;;
21430;SDS011;10876;49.038;10.608;2023-03-01T10:00:23;25.02;;;11.35;;
21430;SDS011;10876;49.038;10.608;2023-03-01T10:03:07;23.83;;;12.10;;
21430;SDS011;10876;49.038;10.608;2023-03-01T10:05:43;25.27;;;12.55;;
21430;SDS011;10876;49.038;10.608;2023-03-01T10:08:25;26.55;;;11.93;;
21430;SDS011;10876;49.038;10.608;2023-03-01T10:10:56;25.83;;;11.82;;
21430;SDS011;10876;49.038;10.608;2023-03-01T10:13:26;24.13;;;12.35;;
21430;SDS011;10876;49.038;10.608;2023-03-01T10:15:59;24.75;;;11.88;;
21430;SDS011;10876;49.038;10.608;2023-03-01T10:18:32;22.63;;;11.27;;
21430;SDS011;10876;49.038;10.608;2023-03-01T10:21:07;15.23;;;6.68;;
21430;SDS011;10876;49.038;10.608;2023-03-01T10:23:41;22.88;;;12.23;;
21430;SDS011;10876;49.038;10.608;2023-03-01T10:29:10;24.08;;;11.57;;
21430;SDS011;10876;49.038;10.608;2023-03-01T10:31:39;24.75;;;12.40;;
21430;SDS011;10876;49.038;10.608;2023-03-01T10:34:13;24.25;;;11.52;;
21430;SDS011;10876;49.038;10.608;2023-03-01T10:36:43;20.95;;;11.60;;
21430;SDS011;10876;49.038;10.608;2023-03-01T10:39:17;24.05;;;12.50;;
21430;SDS011;10876;49.038;10.608;2023-03-01T10:41:57;23.10;;;11.95;;
21430;SDS011;10876;49.038;10.608;2023-03-01T10:44:36;24.27;;;9.98;;
21430;SDS011;10876;49.038;10.608;2023-03-01T10:47:08;24.00;;;12.15;;
21430;SDS011;10876;49.038;10.608;2023-03-01T10:49:48;23.65;;;11.50;;
21430;SDS011;10876;49.038;10.608;2023-03-01T10:52:20;23.63;;;11.43;;
21430;SDS011;10876;49.038;10.608;2023-03-01T10:54:55;21.77;;;11.63;;
21430;SDS011;10876;49.038;10.608;2023-03-01T10:57:33;21.90;;;11.15;;
21430;SDS011;10876;49.038;10.608;2023-03-01T11:00:14;19.40;;;10.32;;
21430;SDS011;10876;49.038;10.608;2023-03-01T11:02:48;20.52;;;10.98;;
21430;SDS011;10876;49.038;10.608;2023-03-01T11:05:18;22.17;;;10.80;;
21430;SDS011;10876;49.038;10.608;2023-03-01T11:07:49;21.67;;;11.02;;
21430;SDS011;10876;49.038;10.608;2023-03-01T11:10:21;26.40;;;11.10;;
21430;SDS011;10876;49.038;10.608;2023-03-01T11:12:50;24.98;;;11.30;;
21430;SDS011;10876;49.038;10.608;2023-03-01T11:15:22;22.30;;;10.23;;
21430;SDS011;10876;49.038;10.608;2023-03-01T11:17:54;21.58;;;10.77;;
21430;SDS011;10876;49.038;10.608;2023-03-01T11:20:27;16.83;;;9.73;;
21430;SDS011;10876;49.038;10.608;2023-03-01T11:22:59;21.60;;;10.60;;
21430;SDS011;10876;49.038;10.608;2023-03-01T11:25:33;19.30;;;10.38;;
21430;SDS011;10876;49.038;10.608;2023-03-01T11:28:04;20.85;;;9.98;;
21430;SDS011;10876;49.038;10.608;2023-03-01T11:30:37;19.70;;;10.45;;
21430;SDS011;10876;49.038;10.608;2023-03-01T11:33:11;22.00;;;10.10;;
21430;SDS011;10876;49.038;10.608;2023-03-01T11:35:47;20.92;;;10.38;;
21430;SDS011;10876;49.038;10.608;2023-03-01T11:38:21;19.45;;;9.80;;
21430;SDS011;10876;49.038;10.608;2023-03-01T11:40:54;16.33;;;8.23;;
21430;SDS011;10876;49.038;10.608;2023-03-01T11:43:29;21.98;;;9.00;;
21430;SDS011;10876;49.038;10.608;2023-03-01T11:49:22;21.60;;;9.10;;
21430;SDS011;10876;49.038;10.608;2023-03-01T11:52:11;23.13;;;9.75;;
21430;SDS011;10876;49.038;10.608;2023-03-01T11:54:52;20.35;;;9.23;;
21430;SDS011;10876;49.038;10.608;2023-03-01T11:57:43;21.48;;;9.82;;
21430;SDS011;10876;49.038;10.608;2023-03-01T12:00:30;22.00;;;9.48;;
21430;SDS011;10876;49.038;10.608;2023-03-01T12:03:28;19.25;;;10.10;;
21430;SDS011;10876;49.038;10.608;2023-03-01T12:06:05;20.75;;;10.35;;
21430;SDS011;10876;49.038;10.608;2023-03-01T12:08:57;20.02;;;10.35;;
21430;SDS011;10876;49.038;10.608;2023-03-01T12:11:38;22.83;;;10.27;;
21430;SDS011;10876;49.038;10.608;2023-03-01T12:17:21;21.42;;;10.57;;
21430;SDS011;10876;49.038;10.608;2023-03-01T12:20:09;20.75;;;10.10;;
21430;SDS011;10876;49.038;10.608;2023-03-01T12:22:47;25.00;;;11.27;;
21430;SDS011;10876;49.038;10.608;2023-03-01T12:25:25;19.40;;;9.43;;
21430;SDS011;10876;49.038;10.608;2023-03-01T12:28:12;22.15;;;10.75;;
21430;SDS011;10876;49.038;10.608;2023-03-01T12:31:14;22.75;;;10.50;;
21430;SDS011;10876;49.038;10.608;2023-03-01T12:33:57;18.58;;;9.95;;
21430;SDS011;10876;49.038;10.608;2023-03-01T12:36:37;21.23;;;9.90;;
21430;SDS011;10876;49.038;10.608;2023-03-01T12:39:29;17.85;;;9.70;;
21430;SDS011;10876;49.038;10.608;2023-03-01T12:42:04;19.95;;;10.07;;
21430;SDS011;10876;49.038;10.608;2023-03-01T12:44:43;19.65;;;9.93;;
21430;SDS011;10876;49.038;10.608;2023-03-01T12:47:30;17.25;;;9.07;;
21430;SDS011;10876;49.038;10.608;2023-03-01T12:50:11;18.13;;;9.70;;
21430;SDS011;10876;49.038;10.608;2023-03-01T12:52:46;17.98;;;9.77;;
21430;SDS011;10876;49.038;10.608;2023-03-01T12:55:19;20.52;;;10.32;;
21430;SDS011;10876;49.038;10.608;2023-03-01T12:57:57;17.40;;;9.50;;
21430;SDS011;10876;49.038;10.608;2023-03-01T13:00:35;17.35;;;9.05;;
21430;SDS011;10876;49.038;10.608;2023-03-01T13:03:09;17.35;;;9.57;;
21430;SDS011;10876;49.038;10.608;2023-03-01T13:05:48;19.70;;;9.05;;
21430;SDS011;10876;49.038;10.608;2023-03-01T13:08:29;19.70;;;10.50;;
21430;SDS011;10876;49.038;10.608;2023-03-01T13:11:04;19.50;;;9.20;;
21430;SDS011;10876;49.038;10.608;2023-03-01T13:13:38;19.25;;;8.65;;
21430;SDS011;10876;49.038;10.608;2023-03-01T13:16:20;16.80;;;8.55;;
21430;SDS011;10876;49.038;10.608;2023-03-01T13:18:57;16.48;;;9.00;;
21430;SDS011;10876;49.038;10.608;2023-03-01T13:21:33;19.02;;;8.63;;
21430;SDS011;10876;49.038;10.608;2023-03-01T13:24:00;21.10;;;9.10;;
21430;SDS011;10876;49.038;10.608;2023-03-01T13:26:27;15.40;;;8.48;;
21430;SDS011;10876;49.038;10.608;2023-03-01T13:28:54;19.63;;;9.45;;
21430;SDS011;10876;49.038;10.608;2023-03-01T13:34:50;18.92;;;9.07;;
21430;SDS011;10876;49.038;10.608;2023-03-01T13:37:23;18.45;;;8.57;;
21430;SDS011;10876;49.038;10.608;2023-03-01T13:39:57;9.75;;;6.05;;
21430;SDS011;10876;49.038;10.608;2023-03-01T13:42:31;16.55;;;8.45;;
21430;SDS011;10876;49.038;10.608;2023-03-01T13:45:02;14.68;;;7.63;;
21430;SDS011;10876;49.038;10.608;2023-03-01T13:47:34;19.27;;;9.52;;
21430;SDS011;10876;49.038;10.608;2023-03-01T13:50:04;19.70;;;8.77;;
21430;SDS011;10876;49.038;10.608;2023-03-01T13:52:37;16.30;;;8.57;;
21430;SDS011;10876;49.038;10.608;2023-03-01T13:55:14;23.05;;;8.68;;
21430;SDS011;10876;49.038;10.608;2023-03-01T13:57:46;15.35;;;8.27;;
21430;SDS011;10876;49.038;10.608;2023-03-01T14:00:30;19.98;;;9.23;;
21430;SDS011;10876;49.038;10.608;2023-03-01T14:03:13;15.20;;;8.20;;
21430;SDS011;10876;49.038;10.608;2023-03-01T14:05:56;15.52;;;8.35;;
21430;SDS011;10876;49.038;10.608;2023-03-01T14:08:27;19.52;;;9.00;;
21430;SDS011;10876;49.038;10.608;2023-03-01T14:14:04;17.08;;;8.38;;
21430;SDS011;10876;49.038;10.608;2023-03-01T14:16:43;9.07;;;5.32;;
21430;SDS011;10876;49.038;10.608;2023-03-01T14:19:18;16.63;;;8.20;;
21430;SDS011;10876;49.038;10.608;2023-03-01T14:21:59;17.75;;;9.27;;
21430;SDS011;10876;49.038;10.608;2023-03-01T14:28:41;13.63;;;7.10;;
21430;SDS011;10876;49.038;10.608;2023-03-01T14:34:04;16.80;;;8.18;;
21430;SDS011;10876;49.038;10.608;2023-03-01T14:36:32;12.73;;;6.72;;
21430;SDS011;10876;49.038;10.608;2023-03-01T14:39:15;16.42;;;8.73;;
21430;SDS011;10876;49.038;10.608;2023-03-01T14:41:43;17.08;;;8.35;;
21430;SDS011;10876;49.038;10.608;2023-03-01T14:44:14;19.75;;;9.05;;
21430;SDS011;10876;49.038;10.608;2023-03-01T14:46:51;16.35;;;8.63;;
21430;SDS011;10876;49.038;10.608;2023-03-01T14:49:20;17.67;;;8.30;;
21430;SDS011;10876;49.038;10.608;2023-03-01T14:51:52;20.92;;;9.48;;
21430;SDS011;10876;49.038;10.608;2023-03-01T14:54:24;17.70;;;8.73;;
21430;SDS011;10876;49.038;10.608;2023-03-01T14:56:57;20.38;;;9.40;;
21430;SDS011;10876;49.038;10.608;2023-03-01T14:59:25;16.13;;;8.98;;
21430;SDS011;10876;49.038;10.608;2023-03-01T15:01:54;19.17;;;9.43;;
21430;SDS011;10876;49.038;10.608;2023-03-01T15:04:30;18.27;;;8.95;;
21430;SDS011;10876;49.038;10.608;2023-03-01T15:06:58;18.27;;;9.48;;
21430;SDS011;10876;49.038;10.608;2023-03-01T15:09:31;16.42;;;9.30;;
21430;SDS011;10876;49.038;10.608;2023-03-01T15:12:01;16.85;;;8.82;;
21430;SDS011;10876;49.038;10.608;2023-03-01T15:15:08;20.65;;;9.15;;
21430;SDS011;10876;49.038;10.608;2023-03-01T15:18:03;17.75;;;8.45;;
21430;SDS011;10876;49.038;10.608;2023-03-01T15:20:54;17.92;;;9.32;;
21430;SDS011;10876;49.038;10.608;2023-03-01T15:23:32;14.10;;;8.52;;
21430;SDS011;10876;49.038;10.608;2023-03-01T15:39:30;16.90;;;8.60;;
21430;SDS011;10876;49.038;10.608;2023-03-01T15:42:09;17.10;;;8.43;;
21430;SDS011;10876;49.038;10.608;2023-03-01T15:44:39;16.40;;;8.32;;
21430;SDS011;10876;49.038;10.608;2023-03-01T15:50:11;20.90;;;9.32;;
21430;SDS011;10876;49.038;10.608;2023-03-01T15:52:45;14.43;;;8.45;;
21430;SDS011;10876;49.038;10.608;2023-03-01T15:55:18;17.30;;;9.20;;
21430;SDS011;10876;49.038;10.608;2023-03-01T15:57:56;18.50;;;9.63;;